createdAt,value
2023-04-11T00:00:18.470Z,61.40
2023-04-11T00:03:21.172Z,61.30
2023-04-11T00:06:27.869Z,61.50
2023-04-11T00:09:30.119Z,61.40
2023-04-11T00:12:34.688Z,61.40
2023-04-11T00:15:37.717Z,61.40
2023-04-11T00:18:45.106Z,61.40
2023-04-11T00:21:47.363Z,61.40
2023-04-11T00:24:49.796Z,61.50
2023-04-11T00:27:52.095Z,61.50
2023-04-11T00:30:54.475Z,61.40
2023-04-11T00:33:56.807Z,62.20
2023-04-11T00:36:59.162Z,61.50
2023-04-11T00:40:01.475Z,61.50
2023-04-11T00:43:03.846Z,62.20
2023-04-11T00:46:06.555Z,61.50
2023-04-11T00:49:09.697Z,61.50
2023-04-11T00:52:13.936Z,61.50
2023-04-11T00:55:16.557Z,61.50
2023-04-11T00:58:18.923Z,61.60
2023-04-11T01:01:25.286Z,61.50
2023-04-11T01:04:29.609Z,61.50
2023-04-11T01:07:33.262Z,61.50
2023-04-11T01:10:35.991Z,61.50
2023-04-11T01:13:41.620Z,61.50
2023-04-11T01:16:47.232Z,61.50
2023-04-11T01:19:49.762Z,61.50
2023-04-11T01:22:52.747Z,61.50
2023-04-11T01:25:55.025Z,61.40
2023-04-11T01:28:57.953Z,61.40
2023-04-11T01:32:00.640Z,61.40
2023-04-11T01:35:05.592Z,61.40
2023-04-11T01:38:08.529Z,61.40
2023-04-11T01:41:12.324Z,61.50
2023-04-11T01:44:14.693Z,61.50
2023-04-11T01:47:16.991Z,61.50
2023-04-11T01:50:19.337Z,61.60
2023-04-11T01:53:21.773Z,61.60
2023-04-11T01:56:24.174Z,61.60
2023-04-11T01:59:26.523Z,61.60
2023-04-11T02:02:29.030Z,61.60
2023-04-11T02:05:31.378Z,61.60
2023-04-11T02:08:33.737Z,61.60
2023-04-11T02:11:36.066Z,61.60
2023-04-11T02:14:47.488Z,61.60
2023-04-11T02:17:49.802Z,61.70
2023-04-11T02:20:53.420Z,61.60
2023-04-11T02:23:56.200Z,61.70
2023-04-11T02:26:58.480Z,61.70
2023-04-11T02:30:05.882Z,61.70
2023-04-11T02:33:08.247Z,61.70
2023-04-11T02:36:12.624Z,61.70
2023-04-11T02:39:15.682Z,61.70
2023-04-11T02:42:18.038Z,61.80
2023-04-11T02:45:20.931Z,61.80
2023-04-11T02:48:23.564Z,61.90
2023-04-11T02:51:26.158Z,61.80
2023-04-11T02:54:28.783Z,61.80
2023-04-11T02:57:33.679Z,61.80
2023-04-11T03:00:37.973Z,61.90
2023-04-11T03:03:43.820Z,62.00
2023-04-11T03:06:47.356Z,62.00
2023-04-11T03:09:50.802Z,62.00
2023-04-11T03:12:53.114Z,62.00
2023-04-11T03:15:55.674Z,62.10
2023-04-11T03:19:01.648Z,62.10
2023-04-11T03:22:05.512Z,62.10
2023-04-11T03:25:08.242Z,62.20
2023-04-11T03:28:11.466Z,62.20
2023-04-11T03:31:14.185Z,62.10
2023-04-11T03:34:18.291Z,62.10
2023-04-11T03:37:20.864Z,62.10
2023-04-11T03:40:23.454Z,62.30
2023-04-11T03:43:33.193Z,62.30
2023-04-11T03:46:36.807Z,62.30
2023-04-11T03:49:39.331Z,62.40
2023-04-11T03:52:42.380Z,62.40
2023-04-11T03:55:49.338Z,62.40
2023-04-11T03:58:54.078Z,62.50
2023-04-11T04:02:00.086Z,62.50
2023-04-11T04:05:02.965Z,62.50
2023-04-11T04:08:08.779Z,62.60
2023-04-11T04:11:22.964Z,62.60
2023-04-11T04:14:26.898Z,62.60
2023-04-11T04:17:30.156Z,62.60
2023-04-11T04:20:33.184Z,62.60
2023-04-11T04:23:36.467Z,62.70
2023-04-11T04:27:01.079Z,62.70
2023-04-11T04:30:19.396Z,62.80
2023-04-11T04:33:43.083Z,62.80
2023-04-11T04:36:56.728Z,62.80
2023-04-11T04:40:09.100Z,62.80
2023-04-11T04:43:25.314Z,62.90
2023-04-11T04:46:36.960Z,63.00
2023-04-11T04:49:40.967Z,62.90
2023-04-11T04:52:43.232Z,62.90
2023-04-11T04:55:46.612Z,63.00
2023-04-11T04:58:51.730Z,63.10
2023-04-11T05:01:55.276Z,63.10
2023-04-11T05:05:04.519Z,63.00
2023-04-11T05:08:08.866Z,63.10
2023-04-11T05:11:13.290Z,63.10
2023-04-11T05:14:17.444Z,63.10
2023-04-11T05:17:20.213Z,63.20
2023-04-11T05:20:24.883Z,63.20
2023-04-11T05:23:27.213Z,63.40
2023-04-11T05:26:31.982Z,63.30
2023-04-11T05:29:34.297Z,63.40
2023-04-11T05:32:37.923Z,63.40
2023-04-11T05:35:40.751Z,63.40
2023-04-11T05:38:46.590Z,63.30
2023-04-11T05:41:48.959Z,63.30
2023-04-11T05:44:51.281Z,63.40
2023-04-11T05:47:53.643Z,63.50
2023-04-11T05:50:58.263Z,63.50
2023-04-11T05:54:00.585Z,63.50
2023-04-11T05:57:03.657Z,63.60
2023-04-11T06:00:12.785Z,63.70
2023-04-11T06:03:15.191Z,63.80
2023-04-11T06:06:17.489Z,63.70
2023-04-11T06:09:20.068Z,63.70
2023-04-11T06:12:22.270Z,63.80
2023-04-11T06:15:25.825Z,64.00
2023-04-11T06:18:28.214Z,64.00
2023-04-11T06:21:32.117Z,63.90
2023-04-11T06:24:39.843Z,63.90
2023-04-11T06:27:42.525Z,63.90
2023-04-11T06:30:44.807Z,63.90
2023-04-11T06:33:47.080Z,64.10
2023-04-11T06:36:50.162Z,64.10
2023-04-11T06:39:52.461Z,64.10
2023-04-11T06:42:56.082Z,64.10
2023-04-11T06:45:58.701Z,64.10
2023-04-11T06:49:01.240Z,64.20
2023-04-11T06:52:03.840Z,64.10
2023-04-11T06:55:07.490Z,64.10
2023-04-11T06:58:10.013Z,64.20
2023-04-11T07:01:14.512Z,64.10
2023-04-11T07:04:17.372Z,64.00
2023-04-11T07:07:19.829Z,64.10
2023-04-11T07:10:22.135Z,64.10
2023-04-11T07:13:24.574Z,64.00
2023-04-11T07:16:27.834Z,64.10
2023-04-11T07:19:30.136Z,64.20
2023-04-11T07:22:32.395Z,64.30
2023-04-11T07:25:34.829Z,64.40
2023-04-11T07:28:38.912Z,64.40
2023-04-11T07:31:41.755Z,64.40
2023-04-11T07:34:44.067Z,64.40
2023-04-11T07:37:46.567Z,64.40
2023-04-11T07:40:48.897Z,64.40
2023-04-11T07:43:51.521Z,64.40
2023-04-11T07:46:53.815Z,64.40
2023-04-11T07:49:56.098Z,64.40
2023-04-11T07:52:58.442Z,64.40
2023-04-11T07:56:01.053Z,64.40
2023-04-11T07:59:03.552Z,64.30
2023-04-11T08:02:08.346Z,64.30
2023-04-11T08:05:10.823Z,64.30
2023-04-11T08:08:14.085Z,64.20
2023-04-11T08:11:16.646Z,64.20
2023-04-11T08:14:19.021Z,64.20
2023-04-11T08:17:28.058Z,64.20
2023-04-11T08:20:31.256Z,64.20
2023-04-11T08:23:33.528Z,64.30
2023-04-11T08:26:35.858Z,64.10
2023-04-11T08:29:38.042Z,64.10
2023-04-11T08:32:41.420Z,64.10
2023-04-11T08:35:43.813Z,64.00
2023-04-11T08:38:46.317Z,64.00
2023-04-11T08:41:48.703Z,63.80
2023-04-11T08:44:53.852Z,63.70
2023-04-11T08:47:56.182Z,63.40
2023-04-11T08:50:58.571Z,63.50
2023-04-11T08:54:05.896Z,63.50
2023-04-11T08:57:08.385Z,63.30
2023-04-11T09:00:14.442Z,63.30
2023-04-11T09:03:17.738Z,63.20
2023-04-11T09:06:20.258Z,63.10
2023-04-11T09:09:31.029Z,63.00
2023-04-11T09:12:33.556Z,62.90
2023-04-11T09:15:35.980Z,62.90
2023-04-11T09:18:40.247Z,62.80
2023-04-11T09:21:50.304Z,62.70
2023-04-11T09:25:03.822Z,62.60
2023-04-11T09:28:11.050Z,62.50
2023-04-11T09:31:13.882Z,62.40
2023-04-11T09:34:27.913Z,62.50
2023-04-11T09:37:43.144Z,62.50
2023-04-11T09:40:45.385Z,62.40
2023-04-11T09:43:58.222Z,62.40
2023-04-11T09:47:00.792Z,62.40
2023-04-11T09:50:03.577Z,62.10
2023-04-11T09:53:09.230Z,62.10
2023-04-11T09:56:12.334Z,61.90
2023-04-11T09:59:18.009Z,61.80
2023-04-11T10:02:21.082Z,61.70
2023-04-11T10:05:28.601Z,61.60
2023-04-11T10:08:36.128Z,61.60
2023-04-11T10:11:41.751Z,61.40
2023-04-11T10:14:45.135Z,61.40
2023-04-11T10:18:13.937Z,61.30
2023-04-11T10:21:33.015Z,61.30
2023-04-11T10:24:35.543Z,61.20
2023-04-11T10:27:54.820Z,61.70
2023-04-11T10:31:04.877Z,61.10
2023-04-11T10:34:16.484Z,61.10
2023-04-11T10:37:31.026Z,60.80
2023-04-11T10:40:33.765Z,60.90
2023-04-11T10:43:39.160Z,60.80
2023-04-11T10:46:54.280Z,61.00
2023-04-11T10:49:56.856Z,60.80
2023-04-11T10:52:59.917Z,60.80
2023-04-11T10:56:02.731Z,60.80
2023-04-11T10:59:04.958Z,60.80
2023-04-11T11:02:07.471Z,60.80
2023-04-11T11:05:17.098Z,60.80
2023-04-11T11:08:30.700Z,60.70
2023-04-11T11:11:33.174Z,60.70
2023-04-11T11:14:36.066Z,60.70
2023-04-11T11:17:38.498Z,60.70
2023-04-11T11:20:40.894Z,60.70
2023-04-11T11:24:03.585Z,60.80
2023-04-11T11:27:05.920Z,60.80
2023-04-11T11:30:12.112Z,60.70
2023-04-11T11:33:19.381Z,60.70
2023-04-11T11:36:21.718Z,60.80
2023-04-11T11:39:24.768Z,60.70
2023-04-11T11:42:28.167Z,60.70
2023-04-11T11:45:30.611Z,60.70
2023-04-11T11:48:32.854Z,60.60
2023-04-11T11:51:41.940Z,60.80
2023-04-11T11:54:48.146Z,60.70
2023-04-11T11:57:51.037Z,60.80
2023-04-11T12:00:54.192Z,60.80
2023-04-11T12:03:58.379Z,60.60
2023-04-11T12:07:09.133Z,60.70
2023-04-11T12:10:16.592Z,60.70
2023-04-11T12:13:23.827Z,60.70
2023-04-11T12:16:26.411Z,60.70
2023-04-11T12:19:29.116Z,60.80
2023-04-11T12:22:31.300Z,60.70
2023-04-11T12:25:33.634Z,60.80
2023-04-11T12:28:36.008Z,60.80
2023-04-11T12:31:38.288Z,61.00
2023-04-11T12:34:40.555Z,60.90
2023-04-11T12:37:42.960Z,61.00
2023-04-11T12:40:45.706Z,61.00
2023-04-11T12:43:47.932Z,61.00
2023-04-11T12:46:50.251Z,61.10
2023-04-11T12:49:52.523Z,61.20
2023-04-11T12:52:56.265Z,61.50
2023-04-11T12:55:58.775Z,61.30
2023-04-11T12:59:01.275Z,61.50
2023-04-11T13:02:03.743Z,61.50
2023-04-11T13:05:09.283Z,61.50
2023-04-11T13:08:11.765Z,61.70
2023-04-11T13:11:14.025Z,61.70
2023-04-11T13:14:16.426Z,61.90
2023-04-11T13:17:18.739Z,62.00
2023-04-11T13:20:21.135Z,62.20
2023-04-11T13:23:23.346Z,62.20
2023-04-11T13:26:25.672Z,62.20
2023-04-11T13:29:27.856Z,62.20
2023-04-11T13:32:30.095Z,62.20
2023-04-11T13:35:32.401Z,62.60
2023-04-11T13:38:34.745Z,62.40
2023-04-11T13:41:37.080Z,62.40
2023-04-11T13:44:39.406Z,62.60
2023-04-11T13:47:41.755Z,62.60
2023-04-11T13:50:44.046Z,62.70
2023-04-11T13:53:46.355Z,62.70
2023-04-11T13:56:48.623Z,62.70
2023-04-11T13:59:51.178Z,62.80
2023-04-11T14:02:53.764Z,62.90
2023-04-11T14:05:56.313Z,62.90
2023-04-11T14:08:59.111Z,62.90
2023-04-11T14:12:01.707Z,62.90
2023-04-11T14:15:05.542Z,62.90
2023-04-11T14:18:07.814Z,62.90
2023-04-11T14:21:10.233Z,63.10
2023-04-11T14:24:12.551Z,62.90
2023-04-11T14:27:14.931Z,62.90
2023-04-11T14:30:17.117Z,63.00
2023-04-11T14:33:19.428Z,63.10
2023-04-11T14:36:21.804Z,63.20
2023-04-11T14:39:24.180Z,63.20
2023-04-11T14:42:26.490Z,63.20
2023-04-11T14:45:28.783Z,63.20
2023-04-11T14:48:31.211Z,63.30
2023-04-11T14:51:33.552Z,63.20
2023-04-11T14:54:35.951Z,63.40
2023-04-11T14:57:53.881Z,63.20
2023-04-11T15:00:56.211Z,63.40
2023-04-11T15:03:58.856Z,63.30
2023-04-11T15:07:01.812Z,63.40
2023-04-11T15:10:04.246Z,63.50
2023-04-11T15:13:09.132Z,63.80
2023-04-11T15:16:11.931Z,64.60
2023-04-11T15:19:14.207Z,64.30
2023-04-11T15:22:16.406Z,64.20
2023-04-11T15:25:18.666Z,64.10
2023-04-11T15:28:21.626Z,64.10
2023-04-11T15:31:25.790Z,64.20
2023-04-11T15:34:28.158Z,64.30
2023-04-11T15:37:30.400Z,64.30
2023-04-11T15:40:32.683Z,64.20
2023-04-11T15:43:34.971Z,64.30
2023-04-11T15:46:37.317Z,64.30
2023-04-11T15:49:40.067Z,64.40
2023-04-11T15:52:43.096Z,64.40
2023-04-11T15:55:47.249Z,64.60
2023-04-11T15:58:49.582Z,64.20
2023-04-11T16:01:52.350Z,64.40
2023-04-11T16:04:56.177Z,64.50
2023-04-11T16:07:59.604Z,64.70
2023-04-11T16:11:01.921Z,64.70
2023-04-11T16:14:04.220Z,64.70
2023-04-11T16:17:06.569Z,64.70
2023-04-11T16:20:12.069Z,64.80
2023-04-11T16:23:14.679Z,64.90
2023-04-11T16:26:17.086Z,64.90
2023-04-11T16:29:19.432Z,65.00
2023-04-11T16:32:21.842Z,65.10
2023-04-11T16:35:24.138Z,65.00
2023-04-11T16:38:26.529Z,65.20
2023-04-11T16:41:28.882Z,65.20
2023-04-11T16:44:31.493Z,65.30
2023-04-11T16:47:33.910Z,65.30
2023-04-11T16:50:36.422Z,65.40
2023-04-11T16:53:39.558Z,65.20
2023-04-11T16:56:41.812Z,65.50
2023-04-11T16:59:44.228Z,65.30
2023-04-11T17:02:47.345Z,65.40
2023-04-11T17:05:49.982Z,65.50
2023-04-11T17:08:53.074Z,65.50
2023-04-11T17:11:55.549Z,65.60
2023-04-11T17:15:00.586Z,65.70
2023-04-11T17:18:03.212Z,65.80
2023-04-11T17:21:06.395Z,65.60
2023-04-11T17:24:08.712Z,65.80
2023-04-11T17:27:11.013Z,65.70
2023-04-11T17:30:13.874Z,65.80
2023-04-11T17:33:17.082Z,65.80
2023-04-11T17:36:19.487Z,65.80
2023-04-11T17:39:22.162Z,65.80
2023-04-11T17:42:24.590Z,65.80
2023-04-11T17:45:27.393Z,65.80
2023-04-11T17:48:29.730Z,65.80
2023-04-11T17:51:31.919Z,65.90
2023-04-11T17:54:34.659Z,66.00
2023-04-11T17:57:36.998Z,65.90
2023-04-11T18:00:52.538Z,65.80
2023-04-11T18:04:02.645Z,65.90
2023-04-11T18:07:07.158Z,65.90
2023-04-11T18:10:13.136Z,65.90
2023-04-11T18:13:15.503Z,66.00
2023-04-11T18:16:18.251Z,65.90
2023-04-11T18:19:20.669Z,65.80
2023-04-11T18:22:22.847Z,65.80
2023-04-11T18:25:25.298Z,65.80
2023-04-11T18:28:27.591Z,65.80
2023-04-11T18:31:35.164Z,65.80
2023-04-11T18:34:37.581Z,65.80
2023-04-11T18:37:41.712Z,65.90
2023-04-11T18:40:44.058Z,65.90
2023-04-11T18:43:46.380Z,65.90
2023-04-11T18:46:50.327Z,66.00
2023-04-11T18:49:53.893Z,66.00
2023-04-11T18:52:58.958Z,66.10
2023-04-11T18:56:04.246Z,66.00
2023-04-11T18:59:09.733Z,66.00
2023-04-11T19:02:14.417Z,66.00
2023-04-11T19:05:18.976Z,66.10
2023-04-11T19:08:21.556Z,66.20
2023-04-11T19:11:23.795Z,66.10
2023-04-11T19:14:26.344Z,66.20
2023-04-11T19:17:28.615Z,66.20
2023-04-11T19:20:30.806Z,66.30
2023-04-11T19:23:33.177Z,66.20
2023-04-11T19:26:35.534Z,66.30
2023-04-11T19:29:37.750Z,66.20
2023-04-11T19:32:44.008Z,66.20
2023-04-11T19:35:47.839Z,66.30
2023-04-11T19:38:50.262Z,66.30
2023-04-11T19:41:52.534Z,66.30
2023-04-11T19:44:54.970Z,66.40
2023-04-11T19:47:57.222Z,66.30
2023-04-11T19:51:01.128Z,66.50
2023-04-11T19:54:04.690Z,66.60
2023-04-11T19:57:07.155Z,66.50
2023-04-11T20:00:17.667Z,66.60
2023-04-11T20:03:21.184Z,66.60
2023-04-11T20:06:23.691Z,66.80
2023-04-11T20:09:26.236Z,66.60
2023-04-11T20:12:28.443Z,66.60
2023-04-11T20:15:31.283Z,66.70
2023-04-11T20:18:34.725Z,66.70
2023-04-11T20:21:37.016Z,66.80
2023-04-11T20:24:39.332Z,66.80
2023-04-11T20:27:42.715Z,66.80
2023-04-11T20:30:44.935Z,66.80
2023-04-11T20:33:47.447Z,67.60
2023-04-11T20:36:49.709Z,66.90
2023-04-11T20:39:52.008Z,66.70
2023-04-11T20:42:56.489Z,66.80
2023-04-11T20:45:58.845Z,66.60
2023-04-11T20:49:02.342Z,66.70
2023-04-11T20:52:04.694Z,66.60
2023-04-11T20:55:08.610Z,66.50
2023-04-11T20:58:12.127Z,66.40
2023-04-11T21:01:15.690Z,66.30
2023-04-11T21:04:18.881Z,66.20
2023-04-11T21:07:21.624Z,66.10
2023-04-11T21:10:24.406Z,65.90
2023-04-11T21:13:26.684Z,65.90
2023-04-11T21:16:29.239Z,66.50
2023-04-11T21:19:31.614Z,65.70
2023-04-11T21:22:35.336Z,65.70
2023-04-11T21:25:38.144Z,65.70
2023-04-11T21:28:40.583Z,65.60
2023-04-11T21:31:42.865Z,65.50
2023-04-11T21:34:45.174Z,65.50
2023-04-11T21:37:49.227Z,65.40
2023-04-11T21:40:52.351Z,65.40
2023-04-11T21:43:54.664Z,65.40
2023-04-11T21:46:57.204Z,65.30
2023-04-11T21:49:59.590Z,65.30
2023-04-11T21:53:01.910Z,65.20
2023-04-11T21:56:06.862Z,65.20
2023-04-11T21:59:09.285Z,65.10
2023-04-11T22:02:11.917Z,65.20
2023-04-11T22:05:14.325Z,65.10
2023-04-11T22:08:20.374Z,65.10
2023-04-11T22:11:22.863Z,65.00
2023-04-11T22:14:27.390Z,65.00
2023-04-11T22:17:31.546Z,64.90
2023-04-11T22:20:34.545Z,64.90
2023-04-11T22:23:36.906Z,64.80
2023-04-11T22:26:46.555Z,64.80
2023-04-11T22:29:49.760Z,64.70
2023-04-11T22:32:54.383Z,64.70
2023-04-11T22:35:58.598Z,64.70
2023-04-11T22:39:01.490Z,64.70
2023-04-11T22:42:03.878Z,64.70
2023-04-11T22:45:07.210Z,64.60
2023-04-11T22:48:09.503Z,64.60
2023-04-11T22:51:14.333Z,64.60
2023-04-11T22:54:16.541Z,64.50
2023-04-11T22:57:19.083Z,64.50
2023-04-11T23:00:24.206Z,64.50
2023-04-11T23:03:28.823Z,64.50
2023-04-11T23:06:31.215Z,64.40
2023-04-11T23:09:33.488Z,64.50
2023-04-11T23:12:35.656Z,64.40
2023-04-11T23:15:37.879Z,64.30
2023-04-11T23:18:40.155Z,64.40
2023-04-11T23:21:43.277Z,64.40
2023-04-11T23:24:45.807Z,64.50
2023-04-11T23:27:48.079Z,64.30
2023-04-11T23:30:50.379Z,64.40
2023-04-11T23:33:53.861Z,64.40
2023-04-11T23:36:57.801Z,64.40
2023-04-11T23:40:00.731Z,64.40
2023-04-11T23:43:03.068Z,64.40
2023-04-11T23:46:06.017Z,64.40
2023-04-11T23:49:08.238Z,64.40
2023-04-11T23:52:12.403Z,64.30
2023-04-11T23:55:14.805Z,64.30
2023-04-11T23:58:16.978Z,64.30
